createdAt,value
2018-07-08T00:00:45.047Z,15.00
2018-07-08T00:03:16.843Z,14.90
2018-07-08T00:05:48.689Z,14.80
2018-07-08T00:08:20.667Z,14.70
2018-07-08T00:10:55.440Z,14.80
2018-07-08T00:13:27.220Z,14.80
2018-07-08T00:15:59.174Z,14.80
2018-07-08T00:18:31.096Z,14.80
2018-07-08T00:21:02.933Z,14.80
2018-07-08T00:23:34.639Z,14.90
2018-07-08T00:26:06.665Z,14.90
2018-07-08T00:28:38.300Z,14.90
2018-07-08T00:31:10.157Z,14.80
2018-07-08T00:33:42.094Z,14.70
2018-07-08T00:36:13.961Z,14.60
2018-07-08T00:38:45.766Z,14.50
2018-07-08T00:41:17.593Z,14.50
2018-07-08T00:43:49.432Z,14.50
2018-07-08T00:46:21.405Z,14.60
2018-07-08T00:48:53.078Z,14.60
2018-07-08T00:51:24.765Z,14.60
2018-07-08T00:53:56.629Z,14.70
2018-07-08T00:56:28.360Z,14.70
2018-07-08T00:59:00.122Z,14.80
2018-07-08T01:01:32.103Z,14.80
2018-07-08T01:04:04.049Z,14.90
2018-07-08T01:06:35.722Z,14.80
2018-07-08T01:09:08.358Z,14.90
2018-07-08T01:11:40.150Z,14.90
2018-07-08T01:14:12.084Z,14.80
2018-07-08T01:16:44.058Z,14.80
2018-07-08T01:19:15.854Z,14.70
2018-07-08T01:21:47.681Z,14.70
2018-07-08T01:24:19.569Z,14.60
2018-07-08T01:26:51.413Z,14.60
2018-07-08T01:29:23.068Z,14.40
2018-07-08T01:31:54.726Z,14.40
2018-07-08T01:34:26.663Z,14.30
2018-07-08T01:36:58.473Z,14.20
2018-07-08T01:39:30.002Z,14.10
2018-07-08T01:42:01.946Z,14.10
2018-07-08T01:44:33.898Z,14.20
2018-07-08T01:47:05.733Z,14.20
2018-07-08T01:49:37.676Z,14.30
2018-07-08T01:52:09.516Z,14.30
2018-07-08T01:54:42.186Z,14.30
2018-07-08T01:57:14.059Z,14.30
2018-07-08T01:59:45.992Z,14.30
2018-07-08T02:02:17.851Z,14.10
2018-07-08T02:04:49.978Z,14.00
2018-07-08T02:07:21.639Z,14.00
2018-07-08T02:09:53.573Z,13.90
2018-07-08T02:12:25.453Z,14.00
2018-07-08T02:14:57.305Z,13.90
2018-07-08T02:17:29.277Z,13.90
2018-07-08T02:20:01.034Z,13.90
2018-07-08T02:22:32.949Z,13.90
2018-07-08T02:25:04.753Z,13.80
2018-07-08T02:27:36.494Z,13.70
2018-07-08T02:30:08.439Z,13.70
2018-07-08T02:32:40.305Z,13.70
2018-07-08T02:35:12.076Z,13.70
2018-07-08T02:37:43.841Z,13.70
2018-07-08T02:40:15.783Z,13.70
2018-07-08T02:42:47.508Z,13.60
2018-07-08T02:45:19.331Z,13.50
2018-07-08T02:47:51.590Z,13.50
2018-07-08T02:50:23.521Z,13.50
2018-07-08T02:52:55.485Z,13.50
2018-07-08T02:55:27.061Z,13.50
2018-07-08T02:57:58.842Z,13.60
2018-07-08T03:00:30.472Z,13.60
2018-07-08T03:03:02.152Z,13.60
2018-07-08T03:05:33.875Z,13.60
2018-07-08T03:08:05.766Z,13.50
2018-07-08T03:10:37.526Z,13.50
2018-07-08T03:13:09.306Z,13.50
2018-07-08T03:15:41.126Z,13.40
2018-07-08T03:18:12.798Z,13.40
2018-07-08T03:20:44.582Z,13.40
2018-07-08T03:23:16.200Z,13.40
2018-07-08T03:25:48.026Z,13.50
2018-07-08T03:28:19.806Z,13.50
2018-07-08T03:30:51.576Z,13.50
2018-07-08T03:33:23.478Z,13.50
2018-07-08T03:35:55.202Z,13.30
2018-07-08T03:38:26.665Z,13.10
2018-07-08T03:40:58.423Z,13.00
2018-07-08T03:43:30.065Z,12.90
2018-07-08T03:46:01.844Z,12.90
2018-07-08T03:48:33.671Z,13.00
2018-07-08T03:51:05.498Z,13.00
2018-07-08T03:53:37.364Z,13.00
2018-07-08T03:56:09.417Z,13.00
2018-07-08T03:58:41.220Z,13.00
2018-07-08T04:01:13.030Z,13.00
2018-07-08T04:03:44.867Z,13.10
2018-07-08T04:06:16.694Z,13.10
2018-07-08T04:08:48.469Z,13.20
2018-07-08T04:11:20.240Z,13.20
2018-07-08T04:13:52.229Z,13.20
2018-07-08T04:16:23.857Z,13.30
2018-07-08T04:18:55.603Z,13.30
2018-07-08T04:21:27.289Z,13.30
2018-07-08T04:23:59.025Z,13.30
2018-07-08T04:26:30.773Z,13.40
2018-07-08T04:29:02.787Z,13.50
2018-07-08T04:31:34.457Z,13.50
2018-07-08T04:34:06.613Z,13.60
2018-07-08T04:36:38.350Z,13.70
2018-07-08T04:39:10.630Z,13.70
2018-07-08T04:41:42.560Z,13.60
2018-07-08T04:44:14.217Z,13.70
2018-07-08T04:46:45.999Z,13.70
2018-07-08T04:49:17.873Z,13.80
2018-07-08T04:51:49.847Z,13.90
2018-07-08T04:54:21.457Z,14.00
2018-07-08T04:56:53.133Z,14.10
2018-07-08T04:59:24.966Z,14.20
2018-07-08T05:01:56.638Z,14.30
2018-07-08T05:04:28.333Z,14.30
2018-07-08T05:07:00.195Z,14.40
2018-07-08T05:09:31.813Z,14.40
2018-07-08T05:12:03.690Z,14.60
2018-07-08T05:14:35.526Z,14.60
2018-07-08T05:17:07.192Z,14.60
2018-07-08T05:19:38.847Z,14.80
2018-07-08T05:22:10.705Z,14.90
2018-07-08T05:24:42.663Z,15.10
2018-07-08T05:27:14.515Z,15.10
2018-07-08T05:29:46.385Z,15.30
2018-07-08T05:32:18.174Z,15.40
2018-07-08T05:34:49.933Z,15.50
2018-07-08T05:37:21.813Z,15.50
2018-07-08T05:39:53.571Z,15.60
2018-07-08T05:42:25.333Z,15.70
2018-07-08T05:44:57.089Z,15.80
2018-07-08T05:47:28.848Z,15.90
2018-07-08T05:50:00.767Z,16.00
2018-07-08T05:52:32.578Z,16.10
2018-07-08T05:55:04.438Z,16.10
2018-07-08T05:57:36.216Z,16.20
2018-07-08T06:00:08.648Z,16.20
2018-07-08T06:02:40.331Z,16.30
2018-07-08T06:05:12.064Z,16.30
2018-07-08T06:07:43.843Z,16.40
2018-07-08T06:10:15.473Z,16.50
2018-07-08T06:12:47.315Z,16.50
2018-07-08T06:15:19.223Z,16.60
2018-07-08T06:17:50.845Z,16.70
2018-07-08T06:20:22.799Z,16.80
2018-07-08T06:22:54.807Z,16.80
2018-07-08T06:25:26.495Z,16.80
2018-07-08T06:27:58.275Z,16.90
2018-07-08T06:30:30.162Z,17.00
2018-07-08T06:33:01.805Z,17.10
2018-07-08T06:35:33.358Z,17.20
2018-07-08T06:38:05.101Z,17.30
2018-07-08T06:40:36.943Z,17.30
2018-07-08T06:43:08.718Z,17.50
2018-07-08T06:45:40.634Z,17.60
2018-07-08T06:48:12.391Z,17.70
2018-07-08T06:50:44.038Z,17.80
2018-07-08T06:53:15.752Z,17.90
2018-07-08T06:55:47.716Z,18.10
2018-07-08T06:58:19.398Z,18.20
2018-07-08T07:00:51.164Z,18.30
2018-07-08T07:03:22.996Z,18.50
2018-07-08T07:05:54.812Z,18.60
2018-07-08T07:08:26.719Z,18.60
2018-07-08T07:10:58.631Z,18.50
2018-07-08T07:13:30.080Z,18.60
2018-07-08T07:16:01.817Z,18.70
2018-07-08T07:18:33.654Z,18.90
2018-07-08T07:21:05.461Z,18.90
2018-07-08T07:23:37.197Z,19.00
2018-07-08T07:26:09.134Z,19.10
2018-07-08T07:28:41.154Z,19.10
2018-07-08T07:31:12.881Z,19.20
2018-07-08T07:33:44.552Z,19.30
2018-07-08T07:36:16.428Z,19.40
2018-07-08T07:38:48.238Z,19.50
2018-07-08T07:41:19.904Z,19.50
2018-07-08T07:43:52.486Z,19.60
2018-07-08T07:46:24.254Z,19.70
2018-07-08T07:48:55.984Z,19.80
2018-07-08T07:51:27.665Z,19.80
2018-07-08T07:53:59.455Z,19.80
2018-07-08T07:56:31.070Z,19.90
2018-07-08T07:59:03.000Z,20.00
2018-07-08T08:01:35.005Z,20.00
2018-07-08T08:04:06.949Z,20.00
2018-07-08T08:06:38.813Z,20.00
2018-07-08T08:09:10.728Z,19.90
2018-07-08T08:11:42.457Z,19.90
2018-07-08T08:14:14.202Z,20.10
2018-07-08T08:16:45.868Z,20.20
2018-07-08T08:19:17.540Z,20.30
2018-07-08T08:21:49.384Z,20.40
2018-07-08T08:24:21.130Z,20.50
2018-07-08T08:26:52.926Z,20.60
2018-07-08T08:29:24.695Z,20.70
2018-07-08T08:31:56.542Z,20.80
2018-07-08T08:35:02.772Z,20.80
2018-07-08T08:37:36.672Z,20.90
2018-07-08T08:40:09.005Z,20.80
2018-07-08T08:42:40.929Z,20.70
2018-07-08T08:45:14.164Z,20.70
2018-07-08T08:47:46.115Z,20.80
2018-07-08T08:50:18.261Z,20.90
2018-07-08T08:52:50.009Z,21.00
2018-07-08T08:55:21.630Z,21.20
2018-07-08T08:57:53.568Z,21.30
2018-07-08T09:00:25.328Z,21.40
2018-07-08T09:02:57.643Z,21.50
2018-07-08T09:05:29.464Z,21.20
2018-07-08T09:08:01.189Z,21.50
2018-07-08T09:10:32.821Z,21.50
2018-07-08T09:13:04.684Z,21.60
2018-07-08T09:15:36.081Z,21.70
2018-07-08T09:18:07.998Z,21.80
2018-07-08T09:20:39.403Z,21.80
2018-07-08T09:23:11.214Z,21.90
2018-07-08T09:25:42.889Z,22.00
2018-07-08T09:28:14.543Z,22.10
2018-07-08T09:30:46.333Z,22.20
2018-07-08T09:33:17.959Z,22.20
2018-07-08T09:35:49.692Z,22.30
2018-07-08T09:38:21.486Z,22.30
2018-07-08T09:40:53.126Z,22.50
2018-07-08T09:43:24.966Z,22.70
2018-07-08T09:45:56.774Z,22.80
2018-07-08T09:48:28.540Z,22.90
2018-07-08T09:51:00.173Z,22.90
2018-07-08T09:53:32.015Z,23.00
2018-07-08T09:56:03.690Z,23.10
2018-07-08T09:58:35.249Z,23.10
2018-07-08T10:01:07.334Z,23.20
2018-07-08T10:03:39.157Z,23.30
2018-07-08T10:06:10.821Z,23.40
2018-07-08T10:08:42.608Z,23.50
2018-07-08T10:11:14.348Z,23.60
2018-07-08T10:13:46.244Z,23.50
2018-07-08T10:16:18.086Z,23.50
2018-07-08T10:18:49.917Z,23.60
2018-07-08T10:21:21.785Z,23.60
2018-07-08T10:23:53.438Z,23.70
2018-07-08T10:26:25.195Z,23.70
2018-07-08T10:28:56.856Z,23.90
2018-07-08T10:31:49.398Z,24.10
2018-07-08T10:34:21.373Z,24.20
2018-07-08T10:36:53.101Z,24.30
2018-07-08T10:39:24.859Z,24.30
2018-07-08T10:41:56.776Z,24.30
2018-07-08T10:44:28.508Z,24.40
2018-07-08T10:47:00.241Z,24.50
2018-07-08T10:49:31.918Z,24.60
2018-07-08T10:52:03.586Z,24.50
2018-07-08T10:54:35.310Z,24.60
2018-07-08T10:57:07.105Z,24.70
2018-07-08T10:59:40.163Z,24.80
2018-07-08T11:02:12.280Z,24.90
2018-07-08T11:04:45.060Z,24.90
2018-07-08T11:07:16.922Z,25.00
2018-07-08T11:09:48.737Z,25.10
2018-07-08T11:12:20.594Z,25.20
2018-07-08T11:14:52.385Z,25.10
2018-07-08T11:17:23.913Z,25.10
2018-07-08T11:19:55.307Z,25.20
2018-07-08T11:24:58.497Z,25.40
2018-07-08T11:27:30.391Z,25.70
2018-07-08T11:30:02.093Z,25.70
2018-07-08T11:32:33.863Z,25.70
2018-07-08T11:35:05.862Z,25.70
2018-07-08T11:37:37.461Z,25.80
2018-07-08T11:40:09.325Z,25.90
2018-07-08T11:42:40.777Z,26.00
2018-07-08T11:45:12.566Z,26.00
2018-07-08T11:47:44.812Z,25.90
2018-07-08T11:50:16.720Z,25.90
2018-07-08T11:52:48.465Z,25.90
2018-07-08T11:55:20.401Z,26.00
2018-07-08T11:57:52.072Z,26.00
2018-07-08T12:00:23.737Z,26.10
2018-07-08T12:02:55.672Z,26.20
2018-07-08T12:05:27.482Z,26.40
2018-07-08T12:07:59.313Z,26.50
2018-07-08T12:10:31.393Z,26.60
2018-07-08T12:13:03.248Z,26.80
2018-07-08T12:15:35.091Z,26.90
2018-07-08T12:18:06.951Z,27.00
2018-07-08T12:20:39.137Z,27.10
2018-07-08T12:23:10.879Z,27.20
2018-07-08T12:25:42.669Z,27.20
2018-07-08T12:28:14.416Z,27.20
2018-07-08T12:30:46.100Z,27.20
2018-07-08T12:33:17.935Z,27.20
2018-07-08T12:35:49.669Z,27.20
2018-07-08T12:38:21.458Z,27.30
2018-07-08T12:40:53.204Z,27.20
2018-07-08T12:43:25.825Z,27.30
2018-07-08T12:45:57.850Z,27.20
2018-07-08T12:48:47.633Z,27.20
2018-07-08T12:51:36.568Z,27.20
2018-07-08T12:54:10.306Z,27.10
2018-07-08T12:56:42.126Z,27.20
2018-07-08T12:59:14.046Z,27.30
2018-07-08T13:01:45.774Z,27.30
2018-07-08T13:04:20.915Z,27.20
2018-07-08T13:12:44.730Z,27.00
2018-07-08T13:15:19.649Z,27.00
2018-07-08T13:17:51.413Z,27.00
2018-07-08T13:20:23.143Z,27.10
2018-07-08T13:22:55.224Z,27.10
2018-07-08T13:25:26.962Z,27.20
2018-07-08T13:27:58.659Z,27.30
2018-07-08T13:30:29.998Z,27.30
2018-07-08T13:33:01.391Z,27.30
2018-07-08T13:35:32.739Z,27.30
2018-07-08T13:38:10.530Z,27.30
2018-07-08T13:40:42.297Z,27.30
2018-07-08T13:43:13.937Z,27.50
2018-07-08T13:45:45.725Z,27.40
2018-07-08T13:48:18.037Z,27.40
2018-07-08T13:50:53.505Z,27.50
2018-07-08T13:53:25.757Z,27.60
2018-07-08T13:55:57.765Z,27.50
2018-07-08T14:01:02.881Z,27.40
2018-07-08T14:03:34.886Z,27.40
2018-07-08T14:06:06.674Z,27.30
2018-07-08T14:08:42.169Z,27.20
2018-07-08T14:11:14.005Z,27.20
2018-07-08T14:13:45.889Z,27.20
2018-07-08T14:16:17.596Z,27.20
2018-07-08T14:18:49.001Z,27.30
2018-07-08T14:21:20.805Z,27.20
2018-07-08T14:23:52.853Z,27.20
2018-07-08T14:26:24.606Z,27.20
2018-07-08T14:31:27.433Z,27.10
2018-07-08T14:33:59.319Z,27.10
2018-07-08T14:36:31.130Z,27.20
2018-07-08T14:39:02.974Z,27.30
2018-07-08T14:41:34.856Z,27.40
2018-07-08T14:44:19.247Z,27.30
2018-07-08T14:46:51.688Z,27.30
2018-07-08T14:49:25.406Z,27.30
2018-07-08T14:51:58.358Z,27.40
2018-07-08T14:54:35.497Z,27.40
2018-07-08T14:57:11.164Z,27.50
2018-07-08T14:59:45.301Z,27.50
2018-07-08T15:02:19.504Z,27.50
2018-07-08T15:04:52.046Z,27.50
2018-07-08T15:07:23.935Z,27.50
2018-07-08T15:09:55.898Z,27.40
2018-07-08T15:12:28.434Z,27.40
2018-07-08T15:15:00.442Z,27.40
2018-07-08T15:17:32.910Z,27.30
2018-07-08T15:20:10.632Z,27.20
2018-07-08T15:22:42.727Z,27.20
2018-07-08T15:25:14.366Z,27.20
2018-07-08T15:27:46.145Z,27.30
2018-07-08T15:30:17.861Z,27.30
2018-07-08T15:32:49.668Z,27.30
2018-07-08T15:35:21.522Z,27.30
2018-07-08T15:37:53.174Z,27.20
2018-07-08T15:40:25.158Z,27.20
2018-07-08T15:42:56.933Z,27.20
2018-07-08T15:45:28.863Z,27.30
2018-07-08T15:48:00.451Z,27.30
2018-07-08T15:50:32.161Z,27.30
2018-07-08T15:53:03.985Z,27.10
2018-07-08T15:55:35.859Z,26.90
2018-07-08T15:58:07.578Z,26.80
2018-07-08T16:00:39.562Z,26.70
2018-07-08T16:03:11.461Z,26.60
2018-07-08T16:05:43.402Z,26.60
2018-07-08T16:08:15.164Z,26.60
2018-07-08T16:10:46.965Z,26.50
2018-07-08T16:13:18.598Z,26.30
2018-07-08T16:15:50.463Z,26.30
2018-07-08T16:18:22.396Z,26.30
2018-07-08T16:20:55.358Z,26.30
2018-07-08T16:23:28.178Z,26.40
2018-07-08T16:26:00.206Z,26.50
2018-07-08T16:28:35.359Z,26.50
2018-07-08T16:31:07.352Z,26.60
2018-07-08T16:33:39.113Z,26.50
2018-07-08T16:36:11.004Z,26.50
2018-07-08T16:38:42.630Z,26.50
2018-07-08T16:41:14.494Z,26.50
2018-07-08T16:43:46.256Z,26.50
2018-07-08T16:46:20.216Z,26.50
2018-07-08T16:48:52.052Z,26.40
2018-07-08T16:51:23.893Z,26.40
2018-07-08T16:53:55.825Z,26.30
2018-07-08T16:56:27.503Z,26.20
2018-07-08T16:58:59.236Z,26.20
2018-07-08T17:01:31.154Z,26.10
2018-07-08T17:04:02.873Z,26.00
2018-07-08T17:06:34.645Z,26.00
2018-07-08T17:09:07.762Z,25.90
2018-07-08T17:11:39.554Z,25.90
2018-07-08T17:14:11.358Z,25.90
2018-07-08T17:16:43.094Z,25.80
2018-07-08T17:19:14.859Z,25.80
2018-07-08T17:21:46.630Z,25.70
2018-07-08T17:24:18.573Z,25.70
2018-07-08T17:26:50.483Z,25.60
2018-07-08T17:29:22.201Z,25.50
2018-07-08T17:31:54.627Z,25.40
2018-07-08T17:34:26.680Z,25.40
2018-07-08T17:36:58.429Z,25.30
2018-07-08T17:39:30.061Z,25.30
2018-07-08T17:42:01.934Z,25.30
2018-07-08T17:44:33.725Z,25.30
2018-07-08T17:47:05.783Z,25.20
2018-07-08T17:49:38.052Z,25.20
2018-07-08T17:54:41.060Z,25.00
2018-07-08T17:57:12.816Z,25.00
2018-07-08T17:59:44.555Z,24.90
2018-07-08T18:02:16.491Z,24.80
2018-07-08T18:04:48.254Z,24.70
2018-07-08T18:07:20.260Z,24.70
2018-07-08T18:09:51.997Z,24.60
2018-07-08T18:12:23.833Z,24.60
2018-07-08T18:14:55.989Z,24.50
2018-07-08T18:17:27.470Z,24.50
2018-07-08T18:19:59.341Z,24.40
2018-07-08T18:22:31.077Z,24.30
2018-07-08T18:25:02.762Z,24.30
2018-07-08T18:27:34.494Z,24.10
2018-07-08T18:30:06.505Z,24.00
2018-07-08T18:32:38.233Z,24.00
2018-07-08T18:35:09.897Z,23.90
2018-07-08T18:37:41.779Z,23.80
2018-07-08T18:40:13.438Z,23.70
2018-07-08T18:42:45.172Z,23.60
2018-07-08T18:45:17.115Z,23.50
2018-07-08T18:47:49.070Z,23.40
2018-07-08T18:50:20.775Z,23.40
2018-07-08T18:52:52.505Z,23.30
2018-07-08T18:55:24.345Z,23.30
2018-07-08T18:57:56.362Z,23.20
2018-07-08T19:00:28.196Z,23.10
2018-07-08T19:02:59.957Z,23.10
2018-07-08T19:05:31.936Z,23.10
2018-07-08T19:08:03.854Z,23.00
2018-07-08T19:10:35.648Z,23.00
2018-07-08T19:13:07.510Z,22.90
2018-07-08T19:15:39.377Z,22.80
2018-07-08T19:18:11.303Z,22.80
2018-07-08T19:20:43.164Z,22.70
2018-07-08T19:23:14.974Z,22.60
2018-07-08T19:25:46.792Z,22.40
2018-07-08T19:28:18.482Z,22.30
2018-07-08T19:30:50.229Z,22.20
2018-07-08T19:33:22.246Z,22.10
2018-07-08T19:35:54.074Z,22.00
2018-07-08T19:38:25.854Z,21.90
2018-07-08T19:40:57.902Z,21.80
2018-07-08T19:43:29.763Z,21.70
2018-07-08T19:46:01.604Z,21.60
2018-07-08T19:48:33.348Z,21.50
2018-07-08T19:51:05.123Z,21.50
2018-07-08T19:53:36.950Z,21.40
2018-07-08T19:56:08.737Z,21.30
2018-07-08T19:58:40.592Z,21.20
2018-07-08T20:01:12.533Z,21.10
2018-07-08T20:03:44.397Z,20.90
2018-07-08T20:06:16.121Z,20.80
2018-07-08T20:08:48.122Z,20.80
2018-07-08T20:11:19.819Z,20.70
2018-07-08T20:13:51.694Z,20.60
2018-07-08T20:16:23.445Z,20.60
2018-07-08T20:18:55.090Z,20.50
2018-07-08T20:21:26.998Z,20.40
2018-07-08T20:23:58.976Z,20.30
2018-07-08T20:26:30.941Z,20.30
2018-07-08T20:29:02.722Z,20.20
2018-07-08T20:31:34.594Z,20.10
2018-07-08T20:34:06.429Z,20.00
2018-07-08T20:36:38.398Z,20.00
2018-07-08T20:39:10.462Z,19.90
2018-07-08T20:41:42.238Z,19.80
2018-07-08T20:44:13.997Z,19.70
2018-07-08T20:46:45.864Z,19.60
2018-07-08T20:49:17.798Z,19.60
2018-07-08T20:51:49.590Z,19.50
2018-07-08T20:54:22.052Z,19.40
2018-07-08T20:56:53.842Z,19.30
2018-07-08T20:59:25.590Z,19.30
2018-07-08T21:01:57.516Z,19.30
2018-07-08T21:04:29.373Z,19.20
2018-07-08T21:07:01.291Z,19.20
2018-07-08T21:09:33.125Z,19.20
2018-07-08T21:12:05.061Z,19.20
2018-07-08T21:14:36.973Z,19.20
2018-07-08T21:17:08.646Z,19.30
2018-07-08T21:22:11.621Z,19.30
2018-07-08T21:24:43.508Z,19.20
2018-07-08T21:27:15.462Z,19.10
2018-07-08T21:29:47.376Z,19.10
2018-07-08T21:32:19.370Z,19.00
2018-07-08T21:34:51.135Z,19.00
2018-07-08T21:37:23.413Z,19.00
2018-07-08T21:39:55.221Z,19.00
2018-07-08T21:42:27.127Z,18.90
2018-07-08T21:44:58.672Z,18.80
2018-07-08T21:47:30.408Z,18.70
2018-07-08T21:50:01.974Z,18.60
2018-07-08T21:52:33.869Z,18.50
2018-07-08T21:55:05.833Z,18.40
2018-07-08T21:57:37.461Z,18.40
2018-07-08T22:00:09.819Z,18.40
2018-07-08T22:02:41.826Z,18.30
2018-07-08T22:05:13.582Z,18.30
2018-07-08T22:07:50.359Z,18.30
2018-07-08T22:10:22.281Z,18.40
2018-07-08T22:12:54.291Z,18.40
2018-07-08T22:15:26.033Z,18.30
2018-07-08T22:17:58.369Z,18.20
2018-07-08T22:20:30.153Z,18.10
2018-07-08T22:23:02.088Z,18.10
2018-07-08T22:25:33.765Z,18.10
2018-07-08T22:28:05.594Z,18.10
2018-07-08T22:30:37.477Z,18.10
2018-07-08T22:33:09.277Z,18.10
2018-07-08T22:35:41.120Z,18.20
2018-07-08T22:38:12.998Z,18.20
2018-07-08T22:40:44.920Z,18.20
2018-07-08T22:43:16.662Z,18.10
2018-07-08T22:45:48.474Z,18.00
2018-07-08T22:48:20.242Z,17.80
2018-07-08T22:50:51.974Z,17.80
2018-07-08T22:53:23.834Z,17.80
2018-07-08T22:55:55.669Z,17.80
2018-07-08T22:58:27.639Z,17.90
2018-07-08T23:01:15.385Z,17.80
2018-07-08T23:03:49.882Z,17.70
2018-07-08T23:06:21.965Z,17.60
2018-07-08T23:08:54.332Z,17.50
2018-07-08T23:11:26.900Z,17.40
2018-07-08T23:13:59.415Z,17.30
2018-07-08T23:16:31.317Z,17.30
2018-07-08T23:19:03.093Z,17.30
2018-07-08T23:21:35.022Z,17.30
2018-07-08T23:24:06.801Z,17.30
2018-07-08T23:26:38.713Z,17.30
2018-07-08T23:29:10.483Z,17.30
2018-07-08T23:31:42.368Z,17.20
2018-07-08T23:34:14.094Z,17.20
2018-07-08T23:36:46.032Z,17.20
2018-07-08T23:39:17.820Z,17.20
2018-07-08T23:41:49.682Z,17.20
2018-07-08T23:44:21.547Z,17.20
2018-07-08T23:46:53.480Z,17.20
2018-07-08T23:49:25.299Z,17.10
2018-07-08T23:51:57.038Z,17.10
2018-07-08T23:54:28.854Z,17.10
2018-07-08T23:57:00.876Z,17.10
2018-07-08T23:59:32.588Z,17.10
